sensor_id;sensor_type;location;lat;lon;timestamp;pressure;altitude;pressure_sealevel;temperature;humidity
54666;BME280;40566;50.006;36.180;2024-03-02T00:04:55;100589.75;;;-0.05;59.98
54666;BME280;40566;50.006;36.180;2024-03-02T00:10:20;100592.88;;;-0.14;60.07
54666;BME280;40566;50.006;36.180;2024-03-02T00:21:02;100590.09;;;-0.23;60.34
54666;BME280;40566;50.006;36.180;2024-03-02T00:26:21;100592.63;;;-0.23;60.22
54666;BME280;40566;50.006;36.180;2024-03-02T00:31:40;100588.25;;;-0.27;60.44
54666;BME280;40566;50.006;36.180;2024-03-02T00:37:00;100586.59;;;-0.27;60.41
54666;BME280;40566;50.006;36.180;2024-03-02T00:42:19;100579.63;;;-0.32;60.49
54666;BME280;40566;50.006;36.180;2024-03-02T00:47:38;100578.53;;;-0.41;60.66
54666;BME280;40566;50.006;36.180;2024-03-02T00:52:58;100576.78;;;-0.43;60.77
54666;BME280;40566;50.006;36.180;2024-03-02T00:58:16;100580.13;;;-0.44;60.68
54666;BME280;40566;50.006;36.180;2024-03-02T01:03:35;100569.00;;;-0.48;60.91
54666;BME280;40566;50.006;36.180;2024-03-02T01:08:55;100566.47;;;-0.48;60.93
54666;BME280;40566;50.006;36.180;2024-03-02T01:14:14;100561.34;;;-0.49;61.05
54666;BME280;40566;50.006;36.180;2024-03-02T01:19:33;100559.63;;;-0.50;61.04
54666;BME280;40566;50.006;36.180;2024-03-02T01:24:52;100564.50;;;-0.56;61.20
54666;BME280;40566;50.006;36.180;2024-03-02T01:30:11;100561.13;;;-0.55;61.21
54666;BME280;40566;50.006;36.180;2024-03-02T01:35:30;100554.22;;;-0.61;61.27
54666;BME280;40566;50.006;36.180;2024-03-02T01:40:49;100555.19;;;-0.56;61.12
54666;BME280;40566;50.006;36.180;2024-03-02T01:46:09;100561.06;;;-0.58;61.37
54666;BME280;40566;50.006;36.180;2024-03-02T01:51:28;100556.66;;;-0.64;61.59
54666;BME280;40566;50.006;36.180;2024-03-02T01:56:47;100564.34;;;-0.63;61.53
54666;BME280;40566;50.006;36.180;2024-03-02T02:02:06;100565.09;;;-0.65;61.43
54666;BME280;40566;50.006;36.180;2024-03-02T02:07:26;100567.78;;;-0.61;61.52
54666;BME280;40566;50.006;36.180;2024-03-02T02:12:45;100577.81;;;-0.65;61.62
54666;BME280;40566;50.006;36.180;2024-03-02T02:18:04;100580.13;;;-0.71;61.80
54666;BME280;40566;50.006;36.180;2024-03-02T02:23:23;100580.84;;;-0.75;61.89
54666;BME280;40566;50.006;36.180;2024-03-02T02:28:42;100583.38;;;-0.75;61.96
54666;BME280;40566;50.006;36.180;2024-03-02T02:34:06;100579.88;;;-0.79;62.15
54666;BME280;40566;50.006;36.180;2024-03-02T02:39:25;100581.50;;;-0.83;62.27
54666;BME280;40566;50.006;36.180;2024-03-02T02:44:44;100581.50;;;-0.83;62.24
54666;BME280;40566;50.006;36.180;2024-03-02T02:50:03;100576.44;;;-0.81;62.28
54666;BME280;40566;50.006;36.180;2024-03-02T02:55:23;100570.31;;;-0.88;62.32
54666;BME280;40566;50.006;36.180;2024-03-02T03:00:42;100581.72;;;-1.02;62.71
54666;BME280;40566;50.006;36.180;2024-03-02T03:06:01;100574.16;;;-1.01;62.50
54666;BME280;40566;50.006;36.180;2024-03-02T03:11:21;100579.38;;;-0.96;62.63
54666;BME280;40566;50.006;36.180;2024-03-02T03:16:41;100578.41;;;-1.00;62.58
54666;BME280;40566;50.006;36.180;2024-03-02T03:22:00;100567.28;;;-1.03;62.89
54666;BME280;40566;50.006;36.180;2024-03-02T03:27:19;100575.53;;;-1.10;63.12
54666;BME280;40566;50.006;36.180;2024-03-02T03:32:41;100567.94;;;-1.09;62.97
54666;BME280;40566;50.006;36.180;2024-03-02T03:38:00;100561.16;;;-1.10;62.89
54666;BME280;40566;50.006;36.180;2024-03-02T03:43:19;100562.84;;;-1.09;62.86
54666;BME280;40566;50.006;36.180;2024-03-02T03:48:38;100562.97;;;-1.06;62.94
54666;BME280;40566;50.006;36.180;2024-03-02T03:53:57;100563.00;;;-0.78;62.56
54666;BME280;40566;50.006;36.180;2024-03-02T03:59:15;100558.75;;;-0.51;62.10
54666;BME280;40566;50.006;36.180;2024-03-02T04:04:35;100566.78;;;-0.37;62.01
54666;BME280;40566;50.006;36.180;2024-03-02T04:09:54;100556.03;;;-0.28;61.92
54666;BME280;40566;50.006;36.180;2024-03-02T04:15:13;100559.28;;;-0.32;62.13
54666;BME280;40566;50.006;36.180;2024-03-02T04:20:32;100552.28;;;-0.40;62.48
54666;BME280;40566;50.006;36.180;2024-03-02T04:25:51;100546.13;;;-0.48;62.65
54666;BME280;40566;50.006;36.180;2024-03-02T04:31:10;100556.06;;;-0.55;62.97
54666;BME280;40566;50.006;36.180;2024-03-02T04:36:29;100554.16;;;-0.63;63.10
54666;BME280;40566;50.006;36.180;2024-03-02T04:41:48;100549.75;;;-0.68;63.13
54666;BME280;40566;50.006;36.180;2024-03-02T04:47:07;100545.53;;;-0.68;63.21
54666;BME280;40566;50.006;36.180;2024-03-02T04:52:26;100538.81;;;-0.66;63.22
54666;BME280;40566;50.006;36.180;2024-03-02T04:57:45;100537.16;;;-0.65;63.11
54666;BME280;40566;50.006;36.180;2024-03-02T05:03:05;100537.19;;;-0.64;63.23
54666;BME280;40566;50.006;36.180;2024-03-02T05:08:24;100540.75;;;-0.58;63.16
54666;BME280;40566;50.006;36.180;2024-03-02T05:13:43;100529.78;;;-0.56;63.25
54666;BME280;40566;50.006;36.180;2024-03-02T05:19:02;100527.50;;;-0.48;63.09
54666;BME280;40566;50.006;36.180;2024-03-02T05:24:21;100527.16;;;-0.30;62.86
54666;BME280;40566;50.006;36.180;2024-03-02T05:29:40;100521.34;;;-0.26;62.79
54666;BME280;40566;50.006;36.180;2024-03-02T05:34:59;100531.66;;;-0.22;62.93
54666;BME280;40566;50.006;36.180;2024-03-02T05:40:18;100524.16;;;-0.17;63.07
54666;BME280;40566;50.006;36.180;2024-03-02T05:45:37;100529.63;;;-0.03;62.79
54666;BME280;40566;50.006;36.180;2024-03-02T05:50:56;100536.63;;;0.06;62.89
54666;BME280;40566;50.006;36.180;2024-03-02T05:56:15;100533.28;;;0.07;63.03
54666;BME280;40566;50.006;36.180;2024-03-02T06:01:34;100526.72;;;0.15;63.11
54666;BME280;40566;50.006;36.180;2024-03-02T06:06:53;100522.66;;;0.22;63.11
54666;BME280;40566;50.006;36.180;2024-03-02T06:12:13;100516.25;;;0.36;62.80
54666;BME280;40566;50.006;36.180;2024-03-02T06:17:32;100517.25;;;0.43;62.72
54666;BME280;40566;50.006;36.180;2024-03-02T06:22:51;100513.50;;;0.62;62.56
54666;BME280;40566;50.006;36.180;2024-03-02T06:28:10;100510.59;;;0.81;62.33
54666;BME280;40566;50.006;36.180;2024-03-02T06:33:28;100517.81;;;0.99;62.22
54666;BME280;40566;50.006;36.180;2024-03-02T06:38:47;100514.56;;;1.06;62.51
54666;BME280;40566;50.006;36.180;2024-03-02T06:44:06;100509.88;;;1.23;62.34
54666;BME280;40566;50.006;36.180;2024-03-02T06:49:25;100515.44;;;1.45;62.00
54666;BME280;40566;50.006;36.180;2024-03-02T06:54:44;100507.34;;;1.64;61.86
54666;BME280;40566;50.006;36.180;2024-03-02T07:00:04;100500.81;;;1.77;62.07
54666;BME280;40566;50.006;36.180;2024-03-02T07:05:24;100494.34;;;1.94;61.90
54666;BME280;40566;50.006;36.180;2024-03-02T07:10:43;100494.69;;;2.13;61.80
54666;BME280;40566;50.006;36.180;2024-03-02T07:16:02;100491.66;;;2.34;61.64
54666;BME280;40566;50.006;36.180;2024-03-02T07:21:22;100474.91;;;2.50;61.56
54666;BME280;40566;50.006;36.180;2024-03-02T07:26:41;100471.88;;;2.72;61.39
54666;BME280;40566;50.006;36.180;2024-03-02T07:32:00;100472.97;;;2.87;60.91
54666;BME280;40566;50.006;36.180;2024-03-02T07:37:19;100451.44;;;3.33;60.25
54666;BME280;40566;50.006;36.180;2024-03-02T07:42:40;100446.50;;;3.47;60.17
54666;BME280;40566;50.006;36.180;2024-03-02T07:47:59;100441.22;;;3.32;61.16
54666;BME280;40566;50.006;36.180;2024-03-02T07:53:18;100432.94;;;3.53;60.96
54666;BME280;40566;50.006;36.180;2024-03-02T07:58:37;100427.31;;;3.82;60.67
54666;BME280;40566;50.006;36.180;2024-03-02T08:04:00;100432.72;;;4.11;60.30
54666;BME280;40566;50.006;36.180;2024-03-02T08:09:19;100424.47;;;4.43;59.81
54666;BME280;40566;50.006;36.180;2024-03-02T08:14:38;100421.19;;;4.61;60.00
54666;BME280;40566;50.006;36.180;2024-03-02T08:19:57;100402.53;;;4.80;59.98
54666;BME280;40566;50.006;36.180;2024-03-02T08:25:17;100396.69;;;5.04;59.64
54666;BME280;40566;50.006;36.180;2024-03-02T08:30:36;100392.53;;;5.32;59.59
54666;BME280;40566;50.006;36.180;2024-03-02T08:35:55;100391.78;;;5.63;59.20
54666;BME280;40566;50.006;36.180;2024-03-02T08:41:15;100388.41;;;5.85;59.12
54666;BME280;40566;50.006;36.180;2024-03-02T08:46:35;100387.63;;;6.11;59.04
54666;BME280;40566;50.006;36.180;2024-03-02T08:51:54;100386.78;;;6.49;58.19
54666;BME280;40566;50.006;36.180;2024-03-02T08:57:13;100378.16;;;6.79;57.87
54666;BME280;40566;50.006;36.180;2024-03-02T09:02:32;100368.63;;;7.09;57.53
54666;BME280;40566;50.006;36.180;2024-03-02T09:07:52;100358.03;;;7.73;55.59
54666;BME280;40566;50.006;36.180;2024-03-02T09:13:10;100363.03;;;7.93;55.50
54666;BME280;40566;50.006;36.180;2024-03-02T09:18:30;100337.50;;;14.78;39.87
54666;BME280;40566;50.006;36.180;2024-03-02T09:23:50;100344.97;;;19.66;32.28
54666;BME280;40566;50.006;36.180;2024-03-02T09:29:10;100323.66;;;22.42;29.12
54666;BME280;40566;50.006;36.180;2024-03-02T09:34:29;100324.72;;;24.60;26.91
54666;BME280;40566;50.006;36.180;2024-03-02T09:39:48;100319.94;;;24.99;26.99
54666;BME280;40566;50.006;36.180;2024-03-02T09:45:07;100335.28;;;24.13;28.36
54666;BME280;40566;50.006;36.180;2024-03-02T09:50:27;100329.09;;;20.30;33.05
54666;BME280;40566;50.006;36.180;2024-03-02T09:55:47;100328.63;;;14.06;42.83
54666;BME280;40566;50.006;36.180;2024-03-02T10:01:06;100314.03;;;14.53;40.93
54666;BME280;40566;50.006;36.180;2024-03-02T10:06:27;100307.56;;;13.61;41.01
54666;BME280;40566;50.006;36.180;2024-03-02T10:11:46;100324.72;;;11.34;45.03
54666;BME280;40566;50.006;36.180;2024-03-02T10:17:08;100320.47;;;9.89;46.95
54666;BME280;40566;50.006;36.180;2024-03-02T10:22:27;100320.72;;;9.09;48.02
54666;BME280;40566;50.006;36.180;2024-03-02T10:27:50;100317.88;;;8.54;48.43
54666;BME280;40566;50.006;36.180;2024-03-02T10:33:09;100327.38;;;8.51;48.20
54666;BME280;40566;50.006;36.180;2024-03-02T10:38:28;100328.56;;;8.13;48.33
54666;BME280;40566;50.006;36.180;2024-03-02T10:43:47;100331.28;;;7.96;48.51
54666;BME280;40566;50.006;36.180;2024-03-02T10:49:07;100321.03;;;7.88;48.58
54666;BME280;40566;50.006;36.180;2024-03-02T10:54:26;100326.38;;;7.58;49.07
54666;BME280;40566;50.006;36.180;2024-03-02T10:59:52;100309.66;;;8.16;47.77
54666;BME280;40566;50.006;36.180;2024-03-02T11:05:12;100316.91;;;7.63;48.65
54666;BME280;40566;50.006;36.180;2024-03-02T11:10:37;100305.03;;;7.42;48.99
54666;BME280;40566;50.006;36.180;2024-03-02T11:15:59;100292.25;;;9.13;45.65
54666;BME280;40566;50.006;36.180;2024-03-02T11:21:23;100286.66;;;14.91;35.71
54666;BME280;40566;50.006;36.180;2024-03-02T11:26:42;100297.41;;;12.94;39.65
54666;BME280;40566;50.006;36.180;2024-03-02T11:32:03;100284.72;;;10.64;43.93
54666;BME280;40566;50.006;36.180;2024-03-02T11:37:22;100276.63;;;15.94;35.35
54666;BME280;40566;50.006;36.180;2024-03-02T11:42:41;100267.56;;;20.34;29.08
54666;BME280;40566;50.006;36.180;2024-03-02T11:48:01;100262.31;;;16.62;33.69
54666;BME280;40566;50.006;36.180;2024-03-02T11:53:24;100259.72;;;12.79;40.34
54666;BME280;40566;50.006;36.180;2024-03-02T11:58:46;100265.16;;;10.49;44.21
54666;BME280;40566;50.006;36.180;2024-03-02T12:04:07;100255.28;;;9.72;45.31
54666;BME280;40566;50.006;36.180;2024-03-02T12:09:30;100242.97;;;9.32;46.02
54666;BME280;40566;50.006;36.180;2024-03-02T12:14:53;100232.81;;;9.20;46.26
54666;BME280;40566;50.006;36.180;2024-03-02T12:20:14;100237.41;;;9.01;46.50
54666;BME280;40566;50.006;36.180;2024-03-02T12:25:33;100230.81;;;8.77;46.75
54666;BME280;40566;50.006;36.180;2024-03-02T12:30:52;100220.91;;;8.43;47.29
54666;BME280;40566;50.006;36.180;2024-03-02T12:36:13;100202.13;;;8.28;47.24
54666;BME280;40566;50.006;36.180;2024-03-02T12:41:32;100223.72;;;8.20;47.42
54666;BME280;40566;50.006;36.180;2024-03-02T12:46:51;100222.91;;;8.13;47.73
54666;BME280;40566;50.006;36.180;2024-03-02T12:52:13;100215.25;;;8.07;47.74
54666;BME280;40566;50.006;36.180;2024-03-02T12:57:33;100216.28;;;7.87;48.18
54666;BME280;40566;50.006;36.180;2024-03-02T13:02:52;100218.84;;;7.90;47.96
54666;BME280;40566;50.006;36.180;2024-03-02T13:08:12;100207.78;;;7.79;48.29
54666;BME280;40566;50.006;36.180;2024-03-02T13:13:31;100201.78;;;7.80;48.27
54666;BME280;40566;50.006;36.180;2024-03-02T13:18:50;100204.28;;;7.86;48.09
54666;BME280;40566;50.006;36.180;2024-03-02T13:24:09;100212.03;;;7.85;48.02
54666;BME280;40566;50.006;36.180;2024-03-02T13:29:28;100219.81;;;7.79;48.04
54666;BME280;40566;50.006;36.180;2024-03-02T13:34:47;100212.22;;;7.63;48.35
54666;BME280;40566;50.006;36.180;2024-03-02T13:40:06;100210.53;;;7.61;48.29
54666;BME280;40566;50.006;36.180;2024-03-02T13:45:31;100208.88;;;7.50;48.44
54666;BME280;40566;50.006;36.180;2024-03-02T13:50:51;100207.22;;;7.40;48.71
54666;BME280;40566;50.006;36.180;2024-03-02T13:56:11;100202.13;;;7.34;48.65
54666;BME280;40566;50.006;36.180;2024-03-02T14:01:31;100194.47;;;7.28;49.10
54666;BME280;40566;50.006;36.180;2024-03-02T14:06:51;100199.66;;;7.23;49.05
54666;BME280;40566;50.006;36.180;2024-03-02T14:12:10;100195.38;;;7.19;49.11
54666;BME280;40566;50.006;36.180;2024-03-02T14:17:29;100195.44;;;7.10;49.28
54666;BME280;40566;50.006;36.180;2024-03-02T14:22:50;100207.41;;;7.12;48.96
54666;BME280;40566;50.006;36.180;2024-03-02T14:28:09;100210.06;;;7.02;48.96
54666;BME280;40566;50.006;36.180;2024-03-02T14:33:28;100195.59;;;6.85;49.24
54666;BME280;40566;50.006;36.180;2024-03-02T14:38:47;100200.72;;;6.88;49.07
54666;BME280;40566;50.006;36.180;2024-03-02T14:44:07;100205.03;;;6.80;48.73
54666;BME280;40566;50.006;36.180;2024-03-02T14:49:26;100193.97;;;6.61;49.24
54666;BME280;40566;50.006;36.180;2024-03-02T14:54:46;100210.28;;;6.60;48.80
54666;BME280;40566;50.006;36.180;2024-03-02T15:00:06;100194.91;;;6.42;49.17
54666;BME280;40566;50.006;36.180;2024-03-02T15:05:26;100194.09;;;6.27;49.41
54666;BME280;40566;50.006;36.180;2024-03-02T15:10:45;100199.28;;;6.18;49.40
54666;BME280;40566;50.006;36.180;2024-03-02T15:16:04;100197.56;;;6.08;49.65
54666;BME280;40566;50.006;36.180;2024-03-02T15:21:24;100207.03;;;5.97;49.76
54666;BME280;40566;50.006;36.180;2024-03-02T15:26:43;100213.84;;;5.82;49.84
54666;BME280;40566;50.006;36.180;2024-03-02T15:32:03;100218.97;;;5.68;49.93
54666;BME280;40566;50.006;36.180;2024-03-02T15:37:25;100215.56;;;5.59;50.02
54666;BME280;40566;50.006;36.180;2024-03-02T15:42:45;100230.09;;;5.49;50.30
54666;BME280;40566;50.006;36.180;2024-03-02T15:48:04;100231.81;;;5.44;50.07
54666;BME280;40566;50.006;36.180;2024-03-02T15:53:23;100236.94;;;5.36;50.26
54666;BME280;40566;50.006;36.180;2024-03-02T15:58:42;100246.34;;;5.28;50.13
54666;BME280;40566;50.006;36.180;2024-03-02T16:04:01;100243.75;;;5.20;50.22
54666;BME280;40566;50.006;36.180;2024-03-02T16:09:21;100249.69;;;5.11;50.32
54666;BME280;40566;50.006;36.180;2024-03-02T16:14:41;100244.56;;;5.02;50.25
54666;BME280;40566;50.006;36.180;2024-03-02T16:19:59;100254.78;;;4.97;50.22
54666;BME280;40566;50.006;36.180;2024-03-02T16:25:18;100247.94;;;4.89;50.14
54666;BME280;40566;50.006;36.180;2024-03-02T16:30:37;100252.19;;;4.81;50.44
54666;BME280;40566;50.006;36.180;2024-03-02T16:35:56;100249.56;;;4.71;50.14
54666;BME280;40566;50.006;36.180;2024-03-02T16:41:15;100256.38;;;4.65;50.45
54666;BME280;40566;50.006;36.180;2024-03-02T16:46:36;100253.81;;;4.60;50.43
54666;BME280;40566;50.006;36.180;2024-03-02T16:51:59;100250.34;;;4.49;50.21
54666;BME280;40566;50.006;36.180;2024-03-02T16:57:18;100256.28;;;4.45;50.42
54666;BME280;40566;50.006;36.180;2024-03-02T17:02:36;100256.25;;;4.40;50.32
54666;BME280;40566;50.006;36.180;2024-03-02T17:07:55;100252.81;;;4.35;50.26
54666;BME280;40566;50.006;36.180;2024-03-02T17:13:17;100250.19;;;4.26;50.47
54666;BME280;40566;50.006;36.180;2024-03-02T17:18:35;100262.94;;;4.18;50.57
54666;BME280;40566;50.006;36.180;2024-03-02T17:23:54;100254.41;;;4.13;50.59
54666;BME280;40566;50.006;36.180;2024-03-02T17:29:14;100267.16;;;4.10;50.45
54666;BME280;40566;50.006;36.180;2024-03-02T17:34:33;100271.38;;;4.05;50.29
54666;BME280;40566;50.006;36.180;2024-03-02T17:39:52;100257.72;;;4.03;50.36
54666;BME280;40566;50.006;36.180;2024-03-02T17:45:13;100278.19;;;4.01;50.50
54666;BME280;40566;50.006;36.180;2024-03-02T17:50:32;100262.78;;;3.96;50.22
54666;BME280;40566;50.006;36.180;2024-03-02T17:55:51;100273.03;;;3.96;50.07
54666;BME280;40566;50.006;36.180;2024-03-02T18:01:10;100280.72;;;3.95;50.08
54666;BME280;40566;50.006;36.180;2024-03-02T18:06:33;100284.91;;;3.88;50.33
54666;BME280;40566;50.006;36.180;2024-03-02T18:11:54;100274.63;;;3.82;50.06
54666;BME280;40566;50.006;36.180;2024-03-02T18:17:13;100279.72;;;3.79;50.10
54666;BME280;40566;50.006;36.180;2024-03-02T18:22:33;100267.75;;;3.75;50.15
54666;BME280;40566;50.006;36.180;2024-03-02T18:27:52;100278.78;;;3.71;50.07
54666;BME280;40566;50.006;36.180;2024-03-02T18:33:10;100278.72;;;3.63;50.28
54666;BME280;40566;50.006;36.180;2024-03-02T18:38:30;100279.53;;;3.59;50.30
54666;BME280;40566;50.006;36.180;2024-03-02T18:43:48;100278.66;;;3.54;50.29
54666;BME280;40566;50.006;36.180;2024-03-02T18:49:08;100271.75;;;3.47;50.09
54666;BME280;40566;50.006;36.180;2024-03-02T18:54:27;100287.94;;;3.44;50.30
54666;BME280;40566;50.006;36.180;2024-03-02T18:59:46;100281.88;;;3.37;50.47
54666;BME280;40566;50.006;36.180;2024-03-02T19:05:05;100291.25;;;3.34;50.25
54666;BME280;40566;50.006;36.180;2024-03-02T19:10:24;100297.16;;;3.28;50.24
54666;BME280;40566;50.006;36.180;2024-03-02T19:15:43;100283.41;;;3.18;50.51
54666;BME280;40566;50.006;36.180;2024-03-02T19:21:03;100285.91;;;3.12;50.51
54666;BME280;40566;50.006;36.180;2024-03-02T19:26:21;100284.16;;;3.08;50.48
54666;BME280;40566;50.006;36.180;2024-03-02T19:31:42;100289.19;;;3.04;50.54
54666;BME280;40566;50.006;36.180;2024-03-02T19:37:01;100287.41;;;2.95;50.53
54666;BME280;40566;50.006;36.180;2024-03-02T19:42:21;100297.56;;;2.92;50.65
54666;BME280;40566;50.006;36.180;2024-03-02T19:47:40;100296.69;;;2.90;50.52
54666;BME280;40566;50.006;36.180;2024-03-02T19:53:02;100293.25;;;2.86;50.53
54666;BME280;40566;50.006;36.180;2024-03-02T19:58:22;100294.03;;;2.81;50.52
54666;BME280;40566;50.006;36.180;2024-03-02T20:03:41;100298.16;;;2.72;50.58
54666;BME280;40566;50.006;36.180;2024-03-02T20:09:00;100294.72;;;2.67;50.55
54666;BME280;40566;50.006;36.180;2024-03-02T20:14:19;100307.41;;;2.61;50.64
54666;BME280;40566;50.006;36.180;2024-03-02T20:19:39;100309.03;;;2.56;50.66
54666;BME280;40566;50.006;36.180;2024-03-02T20:24:58;100306.38;;;2.48;50.61
54666;BME280;40566;50.006;36.180;2024-03-02T20:30:17;100306.31;;;2.44;50.61
54666;BME280;40566;50.006;36.180;2024-03-02T20:35:37;100300.28;;;2.38;50.66
54666;BME280;40566;50.006;36.180;2024-03-02T20:40:57;100305.34;;;2.35;50.50
54666;BME280;40566;50.006;36.180;2024-03-02T20:46:16;100308.69;;;2.33;50.60
54666;BME280;40566;50.006;36.180;2024-03-02T20:51:35;100312.03;;;2.27;50.69
54666;BME280;40566;50.006;36.180;2024-03-02T20:56:54;100320.44;;;2.20;50.58
54666;BME280;40566;50.006;36.180;2024-03-02T21:02:14;100314.38;;;2.15;50.73
54666;BME280;40566;50.006;36.180;2024-03-02T21:07:33;100316.91;;;2.12;50.64
54666;BME280;40566;50.006;36.180;2024-03-02T21:12:53;100319.41;;;2.09;50.72
54666;BME280;40566;50.006;36.180;2024-03-02T21:18:13;100322.75;;;2.06;50.73
54666;BME280;40566;50.006;36.180;2024-03-02T21:23:32;100313.38;;;2.04;50.91
54666;BME280;40566;50.006;36.180;2024-03-02T21:28:52;100319.25;;;2.01;50.88
54666;BME280;40566;50.006;36.180;2024-03-02T21:34:11;100326.88;;;1.98;51.05
54666;BME280;40566;50.006;36.180;2024-03-02T21:39:30;100330.28;;;1.98;50.84
54666;BME280;40566;50.006;36.180;2024-03-02T21:44:50;100314.88;;;1.92;51.19
54666;BME280;40566;50.006;36.180;2024-03-02T21:50:09;100324.25;;;1.92;51.15
54666;BME280;40566;50.006;36.180;2024-03-02T21:55:29;100319.03;;;1.87;51.20
54666;BME280;40566;50.006;36.180;2024-03-02T22:00:48;100332.69;;;1.89;51.15
54666;BME280;40566;50.006;36.180;2024-03-02T22:06:06;100330.06;;;1.85;51.39
54666;BME280;40566;50.006;36.180;2024-03-02T22:11:25;100330.88;;;1.82;51.47
54666;BME280;40566;50.006;36.180;2024-03-02T22:16:45;100329.16;;;1.81;51.60
54666;BME280;40566;50.006;36.180;2024-03-02T22:22:04;100335.03;;;1.77;51.69
54666;BME280;40566;50.006;36.180;2024-03-02T22:27:23;100326.44;;;1.72;51.85
54666;BME280;40566;50.006;36.180;2024-03-02T22:32:42;100319.63;;;1.71;52.02
54666;BME280;40566;50.006;36.180;2024-03-02T22:38:03;100317.84;;;1.67;52.13
54666;BME280;40566;50.006;36.180;2024-03-02T22:43:22;100328.97;;;1.70;52.22
54666;BME280;40566;50.006;36.180;2024-03-02T22:48:41;100322.09;;;1.66;52.32
54666;BME280;40566;50.006;36.180;2024-03-02T22:54:00;100324.56;;;1.62;52.41
54666;BME280;40566;50.006;36.180;2024-03-02T22:59:19;100331.28;;;1.56;52.64
54666;BME280;40566;50.006;36.180;2024-03-02T23:04:39;100336.34;;;1.55;52.69
54666;BME280;40566;50.006;36.180;2024-03-02T23:09:58;100324.44;;;1.55;52.76
54666;BME280;40566;50.006;36.180;2024-03-02T23:15:17;100322.63;;;1.48;52.77
54666;BME280;40566;50.006;36.180;2024-03-02T23:20:36;100325.88;;;1.41;52.99
54666;BME280;40566;50.006;36.180;2024-03-02T23:25:55;100328.34;;;1.36;53.11
54666;BME280;40566;50.006;36.180;2024-03-02T23:31:14;100323.16;;;1.32;53.29
54666;BME280;40566;50.006;36.180;2024-03-02T23:36:34;100322.22;;;1.27;53.38
54666;BME280;40566;50.006;36.180;2024-03-02T23:41:53;100313.63;;;1.22;53.43
54666;BME280;40566;50.006;36.180;2024-03-02T23:47:12;100321.16;;;1.15;53.56
54666;BME280;40566;50.006;36.180;2024-03-02T23:52:30;100315.06;;;1.07;53.65
54666;BME280;40566;50.006;36.180;2024-03-02T23:57:50;100312.53;;;1.09;53.75
